Time;durP1;ratioP1;P1;durP2;ratioP2;P2;SDS_P1;SDS_P2;PMS_P1;PMS_P2;Temp;Humidity;BMP_temperature;BMP_pressure;BME280_temperature;BME280_humidity;BME280_pressure;Samples;Min_cycle;Max_cycle;Signal;HPM_P1;HPM_P2
2023/02/07 00:02:16;;;;;;;6.60;3.80;;;;;;;-4.02;79.19;100490.62;105394;1263;74738;-24
2023/02/07 00:04:45;;;;;;;7.40;4.20;;;;;;;-3.52;77.87;100497.45;105351;1257;75934;-24
2023/02/07 00:07:14;;;;;;;8.30;4.30;;;;;;;-3.26;76.55;100497.75;105249;1257;73918;-24
2023/02/07 00:09:43;;;;;;;8.90;4.00;;;;;;;-3.31;76.46;100503.38;105148;1258;61138;-24
2023/02/07 00:12:12;;;;;;;9.10;3.90;;;;;;;-3.49;76.85;100500.67;105240;1262;61933;-24
2023/02/07 00:14:41;;;;;;;9.70;4.10;;;;;;;-3.64;77.83;100505.25;105254;1263;74249;-24
2023/02/07 00:17:09;;;;;;;7.60;4.70;;;;;;;-3.86;78.73;100503.20;105588;1258;75796;-24
2023/02/07 00:19:38;;;;;;;8.90;4.90;;;;;;;-4.01;79.68;100501.16;105275;1262;74239;-24
2023/02/07 00:22:07;;;;;;;7.60;4.30;;;;;;;-3.93;79.99;100493.86;105145;1257;62578;-26
2023/02/07 00:24:35;;;;;;;6.80;4.30;;;;;;;-3.38;78.60;100489.97;105237;1261;61722;-25
2023/02/07 00:27:06;;;;;;;6.60;3.90;;;;;;;-3.34;77.81;100491.50;105307;1257;74533;-26
2023/02/07 00:29:36;;;;;;;7.70;4.70;;;;;;;-3.39;78.12;100495.74;105546;1257;76434;-26
2023/02/07 00:32:04;;;;;;;5.90;4.00;;;;;;;-3.63;78.70;100494.05;105506;1261;74155;-26
2023/02/07 00:34:38;;;;;;;9.70;5.00;;;;;;;-3.75;79.52;100494.55;105334;1260;61086;-26
2023/02/07 00:37:08;;;;;;;8.10;4.40;;;;;;;-3.82;80.24;100496.59;105307;1263;61921;-26
2023/02/07 00:39:39;;;;;;;6.60;3.50;;;;;;;-3.98;80.58;100488.92;105305;1258;74563;-26
2023/02/07 00:42:08;;;;;;;9.70;4.30;;;;;;;-3.54;80.17;100481.14;105432;1263;75349;-26
2023/02/07 00:44:37;;;;;;;8.90;3.80;;;;;;;-3.07;78.28;100476.33;105337;1262;73124;-24
2023/02/07 00:47:06;;;;;;;8.00;3.90;;;;;;;-3.25;78.16;100467.53;105682;1263;61156;-24
2023/02/07 00:49:34;;;;;;;8.30;3.80;;;;;;;-3.34;78.30;100468.04;105468;1260;61738;-26
2023/02/07 00:52:03;;;;;;;11.40;3.10;;;;;;;-3.43;79.01;100471.63;105317;1257;74230;-26
2023/02/07 00:54:31;;;;;;;10.80;4.20;;;;;;;-3.57;79.45;100470.96;105482;1261;75583;-26
2023/02/07 00:57:00;;;;;;;6.70;3.50;;;;;;;-3.74;80.01;100468.74;105177;1263;74206;-26
2023/02/07 00:59:29;;;;;;;6.50;4.20;;;;;;;-3.72;80.44;100462.81;105190;1262;62743;-26
2023/02/07 01:01:58;;;;;;;4.70;3.10;;;;;;;-3.21;79.06;100459.19;105247;1261;61608;-25
2023/02/07 01:04:28;;;;;;;6.40;3.70;;;;;;;-2.97;77.69;100459.80;105517;1260;74572;-26
2023/02/07 01:06:57;;;;;;;8.30;3.10;;;;;;;-2.87;76.91;100461.48;105320;1263;74677;-26
2023/02/07 01:09:26;;;;;;;6.10;3.90;;;;;;;-3.13;77.18;100462.73;105193;1257;74063;-26
2023/02/07 01:11:55;;;;;;;6.60;3.80;;;;;;;-3.40;77.69;100456.67;105245;1261;61195;-24
2023/02/07 01:14:26;;;;;;;6.20;4.30;;;;;;;-3.57;78.67;100453.65;105208;1258;61687;-25
2023/02/07 01:24:37;;;;;;;5.40;3.20;;;;;;;-2.74;75.61;100447.65;102662;1292;600294;-25
2023/02/07 01:27:05;;;;;;;4.90;2.70;;;;;;;-2.98;75.78;100445.20;104873;1267;61332;-26
2023/02/07 01:29:34;;;;;;;8.10;4.00;;;;;;;-3.12;76.64;100443.88;104941;1269;61190;-26
2023/02/07 01:32:03;;;;;;;5.30;2.70;;;;;;;-3.23;76.89;100444.25;105567;1262;73600;-26
2023/02/07 01:34:32;;;;;;;10.60;4.30;;;;;;;-3.45;77.74;100437.66;105356;1265;75829;-25
2023/02/07 01:37:00;;;;;;;7.30;4.10;;;;;;;-3.59;78.28;100429.70;105567;1263;73121;-25
2023/02/07 01:39:29;;;;;;;10.00;4.20;;;;;;;-3.28;78.05;100429.13;104334;1262;61240;-25
2023/02/07 01:41:58;;;;;;;8.70;4.00;;;;;;;-2.84;76.52;100430.35;105615;1262;61468;-26
2023/02/07 01:44:27;;;;;;;6.60;3.10;;;;;;;-3.02;76.50;100427.70;105592;1258;72775;-26
2023/02/07 01:46:56;;;;;;;7.20;3.40;;;;;;;-3.00;76.46;100432.30;105623;1263;75742;-25
2023/02/07 01:49:26;;;;;;;6.30;3.70;;;;;;;-3.22;77.36;100432.70;105684;1264;74306;-25
2023/02/07 01:52:01;;;;;;;7.10;3.20;;;;;;;-3.28;77.63;100429.14;105504;1261;61071;-25
2023/02/07 01:54:32;;;;;;;18.50;4.00;;;;;;;-3.36;78.16;100422.02;105294;1258;61069;-26
2023/02/07 01:57:06;;;;;;;8.60;4.30;;;;;;;-3.22;78.49;100420.80;105606;1257;72455;-26
2023/02/07 01:59:37;;;;;;;6.50;3.30;;;;;;;-2.85;77.41;100413.36;105420;1257;75820;-25
2023/02/07 02:02:05;;;;;;;8.40;3.80;;;;;;;-2.85;77.24;100408.44;105646;1260;74065;-26
2023/02/07 02:04:34;;;;;;;5.30;3.10;;;;;;;-2.88;77.90;100412.35;105582;1261;61097;-26
2023/02/07 02:07:03;;;;;;;7.10;4.00;;;;;;;-3.07;78.64;100417.36;105678;1261;61904;-26
2023/02/07 02:09:31;;;;;;;6.50;3.70;;;;;;;-3.32;79.42;100421.17;105561;1258;74532;-25
2023/02/07 02:12:44;;;;;;;9.20;4.40;;;;;;;-3.34;80.11;100418.45;105643;1264;76048;-26
2023/02/07 02:15:36;;;;;;;10.40;3.80;;;;;;;-2.94;79.27;100414.59;105853;1254;72997;-26
2023/02/07 02:18:17;;;;;;;6.50;4.00;;;;;;;-2.60;77.89;100407.47;105722;1257;61156;-26
2023/02/07 02:21:13;;;;;;;13.00;3.60;;;;;;;-2.77;77.92;100403.81;105663;1260;61684;-26
2023/02/07 02:23:50;;;;;;;5.90;3.70;;;;;;;-2.97;78.96;100403.21;105712;1257;74796;-25
2023/02/07 02:27:00;;;;;;;6.30;3.60;;;;;;;-3.14;79.48;100399.71;105564;1260;74992;-25
2023/02/07 02:30:11;;;;;;;5.90;3.20;;;;;;;-3.24;80.22;100402.13;105461;1259;73014;-25
2023/02/07 02:32:52;;;;;;;7.80;3.90;;;;;;;-2.86;79.54;100395.52;105085;1261;61242;-26
2023/02/07 02:35:53;;;;;;;8.50;4.70;;;;;;;-2.62;77.86;100395.91;105279;1263;61873;-25
2023/02/07 02:38:28;;;;;;;7.10;3.50;;;;;;;-2.77;78.23;100389.36;105179;1261;74363;-26
2023/02/07 02:41:02;;;;;;;8.10;4.20;;;;;;;-2.92;78.96;100397.75;105087;1265;73884;-26
2023/02/07 02:43:42;;;;;;;8.60;4.50;;;;;;;-3.21;79.58;100392.42;104928;1260;74013;-26
2023/02/07 02:46:16;;;;;;;7.40;4.00;;;;;;;-3.23;80.09;100393.11;105100;1268;61197;-26
2023/02/07 02:48:45;;;;;;;6.20;3.30;;;;;;;-3.23;80.31;100392.27;105283;1266;61228;-25
2023/02/07 02:51:14;;;;;;;5.80;3.80;;;;;;;-2.89;79.74;100383.13;105213;1261;74198;-25
2023/02/07 02:53:53;;;;;;;5.90;3.50;;;;;;;-2.54;78.08;100381.92;105088;1265;76282;-26
2023/02/07 02:56:34;;;;;;;7.20;4.10;;;;;;;-2.70;78.09;100383.71;105040;1266;72218;-26
2023/02/07 02:59:32;;;;;;;6.40;3.80;;;;;;;-2.98;79.29;100381.28;104836;1259;61162;-26
2023/02/07 03:02:28;;;;;;;6.80;3.90;;;;;;;-3.09;80.00;100384.23;105174;1266;61850;-26
2023/02/07 03:05:17;;;;;;;5.60;3.70;;;;;;;-3.22;80.56;100389.90;105280;1265;73288;-27
2023/02/07 03:08:12;;;;;;;8.20;3.90;;;;;;;-2.83;79.87;100387.88;105133;1260;76181;-26
2023/02/07 03:10:53;;;;;;;5.50;3.90;;;;;;;-2.56;78.31;100392.48;105337;1260;74109;-26
2023/02/07 03:13:43;;;;;;;9.90;4.00;;;;;;;-2.60;77.78;100391.48;105500;1254;61585;-26
2023/02/07 03:16:17;;;;;;;7.70;4.60;;;;;;;-2.93;79.18;100393.52;105708;1254;61888;-26
2023/02/07 03:18:47;;;;;;;6.90;4.20;;;;;;;-3.18;80.41;100388.35;105528;1261;73257;-26
2023/02/07 03:28:58;;;;;;;6.00;3.70;;;;;;;-2.63;78.55;100372.11;102639;1295;600141;-26
2023/02/07 03:31:27;;;;;;;7.20;4.30;;;;;;;-2.74;79.16;100376.42;104835;1271;61302;-26
2023/02/07 03:34:01;;;;;;;7.60;4.20;;;;;;;-2.96;79.82;100372.96;105182;1263;61623;-25
2023/02/07 03:36:32;;;;;;;7.00;3.70;;;;;;;-3.16;80.68;100366.09;105180;1263;73464;-25
2023/02/07 03:39:01;;;;;;;7.00;4.00;;;;;;;-3.16;80.97;100367.61;105003;1264;75858;-26
2023/02/07 03:41:37;;;;;;;7.90;4.30;;;;;;;-2.88;80.64;100362.05;103542;1264;1892163;-27
2023/02/07 03:44:06;;;;;;;7.30;3.50;;;;;;;-2.65;79.48;100360.05;105514;1257;61231;-26
2023/02/07 03:46:35;;;;;;;6.50;3.60;;;;;;;-2.73;79.07;100352.28;105572;1257;61081;-26
2023/02/07 03:49:04;;;;;;;8.60;4.20;;;;;;;-2.90;80.18;100353.56;105663;1263;73820;-26
2023/02/07 03:51:36;;;;;;;9.40;4.90;;;;;;;-3.06;80.42;100354.66;105662;1257;75624;-26
2023/02/07 03:54:04;;;;;;;6.80;3.70;;;;;;;-3.18;81.03;100354.88;105552;1257;73973;-26
2023/02/07 03:56:33;;;;;;;6.70;4.00;;;;;;;-3.10;81.29;100357.55;105553;1257;62448;-26
2023/02/07 03:59:02;;;;;;;6.30;3.80;;;;;;;-2.74;80.28;100358.39;105216;1258;61985;-25
2023/02/07 04:01:30;;;;;;;7.50;4.30;;;;;;;-2.57;79.15;100347.94;105455;1257;74587;-25
2023/02/07 04:03:59;;;;;;;6.00;3.90;;;;;;;-2.68;79.26;100357.36;105639;1257;75595;-26
2023/02/07 04:06:28;;;;;;;8.00;3.60;;;;;;;-2.79;79.52;100359.28;105542;1257;73946;-25
2023/02/07 04:09:00;;;;;;;7.10;4.60;;;;;;;-2.94;80.21;100359.35;105337;1257;61137;-25
2023/02/07 04:11:31;;;;;;;9.00;4.40;;;;;;;-3.08;80.95;100362.47;105283;1261;61795;-26
2023/02/07 04:14:02;;;;;;;11.30;4.70;;;;;;;-2.98;81.41;100361.76;105516;1257;74638;-26
2023/02/07 04:16:31;;;;;;;7.40;4.50;;;;;;;-2.45;80.40;100359.23;105510;1260;74953;-26
2023/02/07 04:19:02;;;;;;;8.10;4.60;;;;;;;-2.49;80.13;100364.38;105608;1257;73950;-26
2023/02/07 04:21:30;;;;;;;10.10;4.70;;;;;;;-2.74;81.64;100364.02;105573;1257;61125;-26
2023/02/07 04:23:59;;;;;;;6.00;3.90;;;;;;;-2.87;83.19;100366.12;105433;1262;61253;-26
2023/02/07 04:26:28;;;;;;;9.80;5.30;;;;;;;-3.09;84.43;100366.05;105508;1261;73535;-26
2023/02/07 04:28:56;;;;;;;9.70;5.00;;;;;;;-3.22;85.11;100370.02;105306;1262;74589;-26
2023/02/07 04:31:24;;;;;;;7.60;4.20;;;;;;;-2.75;84.16;100363.16;105523;1257;74383;-26
2023/02/07 04:33:53;;;;;;;7.30;4.10;;;;;;;-2.48;82.48;100365.90;105640;1261;61173;-25
2023/02/07 04:36:22;;;;;;;10.60;5.50;;;;;;;-2.53;81.95;100362.35;105307;1262;61898;-26
2023/02/07 04:38:51;;;;;;;6.60;4.40;;;;;;;-2.76;82.80;100367.42;105443;1257;74457;-26
2023/02/07 04:41:20;;;;;;;7.40;4.50;;;;;;;-3.04;83.91;100371.30;105294;1262;74108;-26
2023/02/07 04:43:48;;;;;;;7.40;4.30;;;;;;;-3.19;84.92;100372.05;105241;1258;74214;-25
2023/02/07 04:46:17;;;;;;;5.70;4.00;;;;;;;-2.91;84.57;100372.09;105360;1257;61181;-26
2023/02/07 04:48:47;;;;;;;7.50;4.20;;;;;;;-2.53;83.03;100374.61;105530;1259;61562;-26
2023/02/07 04:51:15;;;;;;;6.70;4.30;;;;;;;-2.71;82.57;100383.72;105470;1257;74517;-26
2023/02/07 04:53:45;;;;;;;9.80;4.50;;;;;;;-2.94;83.55;100385.36;105599;1257;75885;-26
2023/02/07 04:56:13;;;;;;;7.90;4.80;;;;;;;-3.08;84.34;100386.09;105474;1257;73932;-25
2023/02/07 04:58:43;;;;;;;10.10;4.70;;;;;;;-3.12;84.66;100384.77;105235;1262;62736;-25
2023/02/07 05:01:12;;;;;;;6.90;4.80;;;;;;;-2.75;83.66;100385.94;105253;1258;61113;-26
2023/02/07 05:03:44;;;;;;;7.20;4.70;;;;;;;-2.48;81.92;100379.67;105536;1257;73435;-26
2023/02/07 05:06:13;;;;;;;9.50;4.90;;;;;;;-2.72;82.75;100388.31;105462;1257;74735;-26
2023/02/07 05:08:41;;;;;;;7.50;4.70;;;;;;;-2.78;83.15;100391.73;105511;1257;73190;-26
2023/02/07 05:11:10;;;;;;;7.40;4.10;;;;;;;-2.97;83.75;100392.85;105598;1258;61157;-26
2023/02/07 05:13:38;;;;;;;9.60;5.10;;;;;;;-3.11;84.90;100393.92;105479;1262;61646;-25
2023/02/07 05:16:07;;;;;;;6.80;4.20;;;;;;;-2.69;84.34;100394.08;105600;1257;74424;-26
2023/02/07 05:18:35;;;;;;;11.70;5.70;;;;;;;-2.27;82.91;100401.48;105572;1263;75904;-26
2023/02/07 05:21:04;;;;;;;9.10;5.30;;;;;;;-2.74;84.00;100398.88;105591;1257;74000;-26
2023/02/07 05:23:33;;;;;;;10.60;6.00;;;;;;;-2.89;85.23;100408.28;105532;1257;61092;-25
2023/02/07 05:26:02;;;;;;;9.20;5.10;;;;;;;-3.01;85.99;100411.73;105407;1257;61609;-26
2023/02/07 05:28:30;;;;;;;5.40;3.70;;;;;;;-2.90;85.88;100416.10;105416;1257;73649;-25
2023/02/07 05:30:59;;;;;;;7.90;4.50;;;;;;;-2.60;84.69;100411.03;105463;1257;75963;-26
2023/02/07 05:33:28;;;;;;;8.80;5.40;;;;;;;-2.37;83.84;100413.96;105429;1258;74183;-26
2023/02/07 05:35:59;;;;;;;7.40;4.50;;;;;;;-2.54;83.45;100418.48;105538;1257;61140;-26
2023/02/07 05:38:28;;;;;;;11.40;6.20;;;;;;;-2.69;83.71;100425.53;105287;1257;61148;-26
2023/02/07 05:40:56;;;;;;;7.40;5.00;;;;;;;-2.90;84.43;100429.36;105544;1257;74535;-25
2023/02/07 05:43:25;;;;;;;8.60;4.80;;;;;;;-3.03;85.03;100432.46;105579;1257;76243;-26
2023/02/07 05:45:53;;;;;;;8.10;5.30;;;;;;;-2.99;85.57;100431.26;105465;1260;74344;-25
2023/02/07 05:48:23;;;;;;;7.10;4.10;;;;;;;-2.64;84.61;100431.11;105575;1257;61142;-25
2023/02/07 05:50:51;;;;;;;9.00;5.60;;;;;;;-2.36;82.86;100435.55;105321;1263;61961;-26
2023/02/07 05:53:20;;;;;;;9.70;5.00;;;;;;;-2.66;83.12;100430.45;105476;1257;73527;-25
2023/02/07 05:55:50;;;;;;;7.70;5.00;;;;;;;-2.82;83.55;100434.77;105434;1263;73695;-26
2023/02/07 05:58:19;;;;;;;6.90;3.70;;;;;;;-2.93;84.27;100428.52;105235;1257;73145;-25
2023/02/07 06:00:47;;;;;;;8.90;5.30;;;;;;;-2.94;84.36;100433.28;105503;1262;62412;-25
2023/02/07 06:03:16;;;;;;;11.40;4.10;;;;;;;-2.69;84.04;100435.73;105483;1263;61885;-25
2023/02/07 06:05:45;;;;;;;9.40;4.40;;;;;;;-2.36;82.75;100436.40;105456;1257;74447;-25
2023/02/07 06:08:14;;;;;;;7.40;3.70;;;;;;;-2.37;82.52;100434.89;105519;1257;75642;-25
2023/02/07 06:10:48;;;;;;;10.10;4.40;;;;;;;-2.75;83.47;100435.08;105595;1262;73916;-25
2023/02/07 06:13:17;;;;;;;9.50;5.10;;;;;;;-2.98;85.01;100435.16;105370;1258;61105;-25
2023/02/07 06:15:46;;;;;;;6.70;4.20;;;;;;;-3.04;85.72;100436.04;105195;1262;61842;-26
2023/02/07 06:18:15;;;;;;;8.60;4.80;;;;;;;-2.83;85.54;100431.70;105219;1265;74349;-25
2023/02/07 06:20:43;;;;;;;8.40;4.60;;;;;;;-2.44;84.14;100433.23;105618;1258;75844;-25
2023/02/07 06:23:12;;;;;;;8.20;5.20;;;;;;;-2.44;83.62;100436.29;105606;1262;74335;-26
2023/02/07 06:25:42;;;;;;;7.60;4.90;;;;;;;-2.60;84.17;100437.73;105397;1263;61122;-25
2023/02/07 06:28:10;;;;;;;12.20;5.60;;;;;;;-2.77;84.93;100443.59;105555;1262;61738;-26
2023/02/07 06:30:39;;;;;;;14.20;5.90;;;;;;;-3.04;85.99;100442.48;105468;1257;74558;-25
2023/02/07 06:33:08;;;;;;;8.00;4.90;;;;;;;-2.90;86.26;100436.66;105506;1261;75867;-25
2023/02/07 06:35:37;;;;;;;9.30;5.20;;;;;;;-2.59;85.12;100432.45;105424;1258;74282;-26
2023/02/07 06:38:06;;;;;;;12.10;6.00;;;;;;;-2.50;84.51;100435.30;105226;1257;61189;-26
2023/02/07 06:40:35;;;;;;;7.60;4.20;;;;;;;-2.86;85.56;100437.16;105418;1257;61914;-25
2023/02/07 06:43:03;;;;;;;11.90;5.50;;;;;;;-2.75;85.43;100439.52;105426;1262;74133;-25
2023/02/07 06:45:33;;;;;;;12.20;6.40;;;;;;;-2.78;85.38;100436.11;105473;1257;75544;-25
2023/02/07 06:48:01;;;;;;;7.20;4.90;;;;;;;-2.57;84.86;100434.64;105470;1262;73913;-26
2023/02/07 06:50:30;;;;;;;7.30;4.70;;;;;;;-2.28;83.72;100437.89;105203;1263;61136;-25
2023/02/07 06:53:00;;;;;;;7.40;4.40;;;;;;;-2.35;83.53;100437.59;105429;1257;61661;-25
2023/02/07 06:55:30;;;;;;;5.70;4.00;;;;;;;-2.42;83.35;100440.70;105336;1257;74408;-26
2023/02/07 06:57:59;;;;;;;11.50;4.70;;;;;;;-2.58;84.24;100438.90;105331;1258;75786;-25
2023/02/07 07:00:28;;;;;;;13.20;6.10;;;;;;;-2.69;85.15;100448.48;105257;1258;74243;-25
2023/02/07 07:02:59;;;;;;;10.20;5.60;;;;;;;-2.39;84.93;100449.87;105548;1258;61109;-26
2023/02/07 07:05:28;;;;;;;9.50;5.10;;;;;;;-2.32;83.99;100439.95;105539;1257;61149;-25
2023/02/07 07:07:56;;;;;;;11.40;6.00;;;;;;;-2.35;83.88;100448.66;105257;1263;73525;-25
2023/02/07 07:10:25;;;;;;;11.20;6.00;;;;;;;-2.43;84.10;100449.38;105615;1257;76332;-25
2023/02/07 07:12:55;;;;;;;11.70;6.00;;;;;;;-2.50;84.88;100453.48;105560;1262;74126;-26
2023/02/07 07:15:23;;;;;;;9.20;6.20;;;;;;;-2.49;84.58;100447.88;105627;1258;62506;-26
2023/02/07 07:18:17;;;;;;;16.40;7.40;;;;;;;-2.12;83.75;100450.38;105552;1263;61176;-26
2023/02/07 07:20:52;;;;;;;8.70;5.60;;;;;;;-2.07;82.86;100452.21;105664;1257;73615;-26
2023/02/07 07:23:20;;;;;;;12.00;6.00;;;;;;;-2.37;83.50;100453.92;105458;1262;74922;-26
2023/02/07 07:25:49;;;;;;;11.10;5.50;;;;;;;-2.47;83.96;100456.70;105585;1259;74343;-25
2023/02/07 07:28:17;;;;;;;13.00;6.30;;;;;;;-2.53;84.64;100458.10;105556;1257;61132;-25
2023/02/07 07:30:48;;;;;;;15.20;7.50;;;;;;;-2.28;84.43;100462.55;105331;1258;61864;-25
2023/02/07 07:33:16;;;;;;;10.00;5.20;;;;;;;-1.88;83.22;100458.38;105317;1262;74590;-25
2023/02/07 07:35:45;;;;;;;17.50;6.00;;;;;;;-2.06;82.62;100459.19;105470;1257;75607;-26
2023/02/07 07:38:14;;;;;;;10.10;5.80;;;;;;;-2.34;83.45;100459.88;105581;1257;74325;-26
2023/02/07 07:40:43;;;;;;;7.40;4.20;;;;;;;-2.33;83.96;100461.73;105529;1263;61174;-25
2023/02/07 07:43:11;;;;;;;7.90;4.90;;;;;;;-2.12;83.81;100463.98;105222;1263;61907;-25
2023/02/07 07:45:54;;;;;;;10.80;6.50;;;;;;;-1.98;83.11;100460.48;105259;1262;75365;-25
2023/02/07 07:48:23;;;;;;;9.30;5.50;;;;;;;-1.83;82.50;100464.30;105269;1266;75795;-25
2023/02/07 07:50:52;;;;;;;11.30;6.70;;;;;;;-1.81;81.83;100464.45;105309;1264;74222;-25
2023/02/07 07:53:20;;;;;;;10.00;5.50;;;;;;;-1.93;82.45;100462.16;105508;1258;61135;-25
2023/02/07 07:55:53;;;;;;;19.10;6.10;;;;;;;-1.97;82.33;100468.83;105521;1258;61757;-25
2023/02/07 07:58:22;;;;;;;6.80;4.00;;;;;;;-2.01;83.00;100469.54;105227;1266;75351;-25
2023/02/07 08:00:51;;;;;;;8.40;4.20;;;;;;;-1.81;82.73;100464.27;105469;1263;74792;-25
2023/02/07 08:03:19;;;;;;;10.40;5.90;;;;;;;-1.64;81.80;100469.26;105588;1258;74106;-25
2023/02/07 08:05:49;;;;;;;8.50;5.80;;;;;;;-1.47;81.19;100465.71;105289;1262;61079;-25
2023/02/07 08:08:18;;;;;;;8.40;4.60;;;;;;;-1.53;81.01;100470.19;105183;1263;61578;-25
2023/02/07 08:10:48;;;;;;;12.20;6.80;;;;;;;-1.72;81.88;100477.15;105516;1257;75256;-25
2023/02/07 08:13:17;;;;;;;13.20;7.10;;;;;;;-1.92;82.58;100476.62;105416;1263;74905;-26
2023/02/07 08:15:46;;;;;;;13.00;6.60;;;;;;;-1.94;82.98;100474.25;105261;1263;74209;-25
2023/02/07 08:18:15;;;;;;;12.00;6.80;;;;;;;-1.58;82.07;100472.11;105601;1263;61145;-25
2023/02/07 08:20:44;;;;;;;8.30;4.40;;;;;;;-1.42;80.99;100469.23;105236;1267;61435;-25
2023/02/07 08:23:13;;;;;;;9.50;5.20;;;;;;;-1.33;80.37;100474.09;105434;1263;75490;-25
2023/02/07 08:25:42;;;;;;;8.90;4.80;;;;;;;-1.42;80.56;100477.92;105447;1263;75827;-25
2023/02/07 08:28:11;;;;;;;9.60;5.10;;;;;;;-1.65;81.68;100479.14;105630;1263;74012;-25
2023/02/07 08:30:40;;;;;;;7.80;5.10;;;;;;;-1.85;82.26;100477.08;105582;1262;61109;-25
2023/02/07 08:33:09;;;;;;;10.50;6.70;;;;;;;-1.71;82.49;100476.29;105602;1263;61160;-25
2023/02/07 08:35:38;;;;;;;7.20;4.60;;;;;;;-1.29;80.81;100475.25;105639;1263;74881;-25
2023/02/07 08:38:07;;;;;;;8.20;4.20;;;;;;;-1.33;80.68;100478.01;105348;1263;75710;-25
2023/02/07 08:40:35;;;;;;;8.00;5.30;;;;;;;-1.39;80.68;100478.08;105393;1263;73962;-25
2023/02/07 08:43:10;;;;;;;9.80;5.50;;;;;;;-1.47;81.47;100477.64;105243;1257;61132;-25
2023/02/07 08:45:40;;;;;;;11.70;5.80;;;;;;;-1.51;81.49;100478.17;105354;1260;62342;-25
2023/02/07 08:48:09;;;;;;;5.80;3.80;;;;;;;-1.60;82.32;100480.47;105258;1254;75298;-25
2023/02/07 08:50:38;;;;;;;8.40;5.50;;;;;;;-1.50;81.58;100476.29;105498;1267;75874;-25
2023/02/07 08:53:08;;;;;;;10.70;5.90;;;;;;;-1.28;80.85;100481.54;105502;1260;74187;-25
2023/02/07 08:55:40;;;;;;;7.60;4.00;;;;;;;-1.27;80.72;100473.86;105602;1265;61156;-25
2023/02/07 08:58:09;;;;;;;12.00;6.50;;;;;;;-1.19;80.40;100479.07;105681;1259;61862;-25
2023/02/07 09:00:38;;;;;;;7.40;4.30;;;;;;;-1.46;81.39;100482.22;105729;1260;74332;-25
2023/02/07 09:03:07;;;;;;;9.00;5.30;;;;;;;-1.79;82.55;100480.27;105681;1254;75974;-25
2023/02/07 09:05:36;;;;;;;9.70;4.30;;;;;;;-1.63;82.51;100478.95;105651;1254;74211;-25
2023/02/07 09:08:04;;;;;;;9.40;5.90;;;;;;;-1.17;80.84;100477.02;105555;1254;61163;-25
2023/02/07 09:10:34;;;;;;;11.50;6.20;;;;;;;-0.98;79.73;100482.11;105582;1259;61740;-25
2023/02/07 09:13:03;;;;;;;7.90;4.50;;;;;;;-1.19;79.69;100477.70;105740;1259;75217;-25
2023/02/07 09:15:32;;;;;;;7.20;4.50;;;;;;;-1.46;81.12;100478.13;105713;1260;75297;-25
2023/02/07 09:18:00;;;;;;;10.40;5.70;;;;;;;-1.58;81.89;100483.69;105577;1254;74155;-25
2023/02/07 09:20:29;;;;;;;7.90;4.80;;;;;;;-1.54;82.30;100485.02;105525;1260;62540;-25
2023/02/07 09:23:16;;;;;;;19.80;10.60;;;;;;;-1.21;81.66;100480.10;105525;1260;62034;-25
2023/02/07 09:25:51;;;;;;;7.40;4.80;;;;;;;-1.13;80.09;100478.16;105528;1259;74195;-25
2023/02/07 09:28:21;;;;;;;6.50;3.40;;;;;;;-1.04;80.32;100475.52;105652;1260;75316;-26
2023/02/07 09:30:49;;;;;;;11.50;7.20;;;;;;;-0.86;79.94;100477.70;105612;1260;73097;-24
2023/02/07 09:33:19;;;;;;;14.80;8.30;;;;;;;-1.06;80.03;100475.19;105712;1255;61112;-24
2023/02/07 09:35:48;;;;;;;25.50;14.00;;;;;;;-1.32;80.86;100465.40;105734;1259;61063;-24
2023/02/07 09:38:20;;;;;;;13.90;8.60;;;;;;;-1.17;81.08;100468.98;105690;1254;75090;-24
2023/02/07 09:40:50;;;;;;;8.50;5.10;;;;;;;-0.79;79.86;100467.05;105653;1267;75926;-25
2023/02/07 09:43:46;;;;;;;8.00;4.70;;;;;;;-1.02;79.79;100461.86;105693;1264;72102;-25
2023/02/07 09:46:18;;;;;;;8.60;5.10;;;;;;;-1.23;81.00;100462.74;105681;1256;61204;-24
2023/02/07 09:48:49;;;;;;;10.20;6.10;;;;;;;-1.14;81.18;100460.27;105661;1264;61648;-24
2023/02/07 09:51:19;;;;;;;11.80;6.00;;;;;;;-1.48;82.04;100461.62;105696;1260;75815;-25
2023/02/07 09:54:03;;;;;;;5.30;5.00;;;;;;;-1.53;83.09;100455.19;105533;1260;75654;-24
2023/02/07 09:56:33;;;;;;;9.30;4.80;;;;;;;-0.98;81.55;100453.95;105591;1260;74004;-24
2023/02/07 09:59:39;;;;;;;8.10;5.40;;;;;;;-0.80;80.33;100447.78;105652;1254;61161;-24
2023/02/07 10:02:30;;;;;;;9.30;5.70;;;;;;;-1.02;80.88;100452.48;105612;1259;62404;-25
2023/02/07 10:05:05;;;;;;;9.20;5.00;;;;;;;-0.90;80.44;100448.23;105570;1254;75408;-24
2023/02/07 10:07:33;;;;;;;18.40;11.30;;;;;;;-1.11;81.08;100449.34;105614;1262;74861;-24
2023/02/07 10:10:01;;;;;;;7.00;4.50;;;;;;;-1.13;81.11;100452.08;105698;1254;74327;-24
2023/02/07 10:12:36;;;;;;;5.70;3.80;;;;;;;-0.77;80.26;100454.73;105541;1253;61257;-24
2023/02/07 10:15:30;;;;;;;4.30;3.10;;;;;;;-0.54;79.48;100457.88;105473;1255;61630;-24
2023/02/07 10:18:18;;;;;;;4.80;3.50;;;;;;;-0.56;79.27;100449.88;105628;1254;75556;-24
2023/02/07 10:21:04;;;;;;;8.40;4.80;;;;;;;-0.68;79.55;100444.39;105629;1260;75590;-24
2023/02/07 10:23:49;;;;;;;10.50;7.00;;;;;;;-0.87;80.22;100445.64;105611;1254;74175;-25
2023/02/07 10:26:22;;;;;;;7.90;4.50;;;;;;;-0.98;80.43;100450.55;105653;1259;61727;-25
2023/02/07 10:29:29;;;;;;;7.00;4.50;;;;;;;-0.76;80.10;100447.58;105618;1260;61241;-25
2023/02/07 10:31:59;;;;;;;6.90;4.70;;;;;;;-0.48;79.02;100447.73;105672;1255;75326;-25
2023/02/07 10:34:31;;;;;;;8.70;5.60;;;;;;;-0.67;79.55;100445.24;105646;1254;75892;-25
2023/02/07 10:37:00;;;;;;;5.50;3.70;;;;;;;-0.76;79.38;100447.90;105544;1254;74031;-24
2023/02/07 10:39:32;;;;;;;178.30;89.10;;;;;;;-0.95;80.07;100451.89;105649;1254;61082;-25
2023/02/07 10:42:01;;;;;;;45.00;17.60;;;;;;;-1.07;80.33;100455.93;105645;1254;61186;-25
2023/02/07 10:44:29;;;;;;;6.20;4.10;;;;;;;-0.84;80.13;100453.29;105779;1258;75428;-24
2023/02/07 10:47:00;;;;;;;8.80;4.80;;;;;;;-0.59;78.95;100456.91;105512;1259;75806;-25
2023/02/07 10:49:35;;;;;;;62.60;27.90;;;;;;;-0.35;77.76;100454.71;105399;1260;73917;-25
2023/02/07 10:52:36;;;;;;;27.90;14.90;;;;;;;-0.46;77.84;100453.33;105251;1260;61068;-25
2023/02/07 10:55:07;;;;;;;22.20;12.20;;;;;;;-0.73;78.87;100450.59;105604;1255;61160;-25
2023/02/07 10:57:36;;;;;;;100.00;39.20;;;;;;;-0.84;78.11;100445.27;105681;1260;75304;-25
2023/02/07 11:00:07;;;;;;;137.30;54.30;;;;;;;-0.93;78.66;100452.54;105698;1255;75920;-25
2023/02/07 11:02:39;;;;;;;28.40;14.20;;;;;;;-0.84;78.36;100450.05;105674;1260;74184;-25
2023/02/07 11:05:14;;;;;;;100.20;53.90;;;;;;;-0.28;76.91;100449.15;105697;1260;61138;-26
2023/02/07 11:08:00;;;;;;;25.00;14.40;;;;;;;-0.07;75.39;100448.35;105834;1254;61550;-26
2023/02/07 11:10:37;;;;;;;117.30;62.50;;;;;;;-0.14;75.42;100451.86;105748;1254;75206;-26
2023/02/07 11:13:15;;;;;;;8.90;5.80;;;;;;;-0.26;76.07;100457.83;105688;1260;74977;-26
2023/02/07 11:15:50;;;;;;;43.10;23.80;;;;;;;-0.45;77.12;100465.27;105473;1260;73933;-25
2023/02/07 11:18:27;;;;;;;17.40;9.60;;;;;;;-0.68;77.76;100462.98;105756;1254;61120;-25
2023/02/07 11:20:55;;;;;;;21.50;11.40;;;;;;;-0.62;78.02;100459.50;105663;1259;61560;-27
2023/02/07 11:23:24;;;;;;;9.30;5.70;;;;;;;-0.31;76.61;100462.85;105827;1257;75292;-25
2023/02/07 11:25:58;;;;;;;21.60;14.30;;;;;;;-0.31;75.56;100461.14;105609;1259;76212;-26
2023/02/07 11:28:29;;;;;;;8.20;4.80;;;;;;;-0.49;76.63;100466.16;105373;1260;73932;-25
2023/02/07 11:31:02;;;;;;;119.20;67.50;;;;;;;-0.62;77.15;100467.87;105605;1260;61205;-25
2023/02/07 11:33:33;;;;;;;102.00;50.90;;;;;;;-0.80;77.91;100473.02;105599;1253;61169;-26
2023/02/07 11:36:11;;;;;;;176.90;87.60;;;;;;;-0.97;78.78;100470.66;105698;1260;74386;-27
2023/02/07 11:38:48;;;;;;;348.10;162.60;;;;;;;-0.95;78.96;100478.30;105692;1257;75857;-27
2023/02/07 11:41:20;;;;;;;242.60;121.00;;;;;;;-0.74;78.52;100474.48;105592;1254;74147;-27
2023/02/07 11:43:58;;;;;;;81.40;44.50;;;;;;;-0.56;77.23;100468.80;105456;1254;61865;-27
2023/02/07 11:46:31;;;;;;;83.40;32.40;;;;;;;-0.34;76.74;100474.85;105532;1255;61064;-25
2023/02/07 11:49:00;;;;;;;146.40;75.10;;;;;;;-0.20;76.72;100479.77;105516;1261;75310;-26
2023/02/07 11:51:31;;;;;;;41.10;23.50;;;;;;;-0.54;77.60;100478.69;105898;1254;76012;-26
2023/02/07 11:54:02;;;;;;;95.90;41.60;;;;;;;-0.94;79.38;100483.25;105869;1257;72859;-26